Time;durP1;ratioP1;P1;durP2;ratioP2;P2;SDS_P1;SDS_P2;PMS_P1;PMS_P2;Temp;Humidity;BMP_temperature;BMP_pressure;BME280_temperature;BME280_humidity;BME280_pressure;Samples;Min_cycle;Max_cycle;Signal;HPM_P1;HPM_P2
2022/03/04 00:00:09;;;;;;;10.17;7.87;;;;;;;;;;5081222;28;20167;-59
2022/03/04 00:02:36;;;;;;;10.43;7.43;;;;;;;;;;5068552;28;20171;-59
2022/03/04 00:05:02;;;;;;;8.40;7.20;;;;;;;;;;5072857;28;20579;-59
2022/03/04 00:07:29;;;;;;;11.33;8.10;;;;;;;;;;5072432;28;20576;-60
2022/03/04 00:09:55;;;;;;;10.07;7.63;;;;;;;;;;5085748;28;20777;-60
2022/03/04 00:12:21;;;;;;;9.50;7.00;;;;;;;;;;5081281;28;20203;-59
2022/03/04 00:14:47;;;;;;;12.20;8.10;;;;;;;;;;5077095;28;20237;-59
2022/03/04 00:17:13;;;;;;;8.40;7.47;;;;;;;;;;5075190;28;20642;-58
2022/03/04 00:19:40;;;;;;;11.20;7.53;;;;;;;;;;5074174;28;20179;-59
2022/03/04 00:22:06;;;;;;;10.27;7.40;;;;;;;;;;5073588;28;20204;-59
2022/03/04 00:24:32;;;;;;;8.40;7.47;;;;;;;;;;5075369;28;20175;-59
2022/03/04 00:26:58;;;;;;;10.30;7.80;;;;;;;;;;5086725;28;20180;-59
2022/03/04 00:29:24;;;;;;;10.07;7.83;;;;;;;;;;5090066;28;20240;-59
2022/03/04 00:31:50;;;;;;;9.70;8.23;;;;;;;;;;5087643;28;20203;-60
2022/03/04 00:34:17;;;;;;;10.83;8.30;;;;;;;;;;5085480;28;20248;-58
2022/03/04 00:36:46;;;;;;;10.73;8.57;;;;;;;;;;5071643;28;20544;-59
2022/03/04 00:39:14;;;;;;;13.43;7.87;;;;;;;;;;5074386;28;20175;-59
2022/03/04 00:41:40;;;;;;;7.97;6.90;;;;;;;;;;5093861;28;20186;-58
2022/03/04 00:44:06;;;;;;;11.40;8.07;;;;;;;;;;5087172;28;20313;-59
2022/03/04 00:46:33;;;;;;;11.37;8.50;;;;;;;;;;5084767;28;20646;-59
2022/03/04 00:48:59;;;;;;;9.30;7.50;;;;;;;;;;5079120;28;20712;-58
2022/03/04 00:51:26;;;;;;;10.33;7.77;;;;;;;;;;5072788;28;20662;-59
2022/03/04 00:53:52;;;;;;;11.60;8.33;;;;;;;;;;5056482;28;20186;-60
2022/03/04 00:56:18;;;;;;;10.87;8.27;;;;;;;;;;5087884;28;20190;-59
2022/03/04 00:58:44;;;;;;;11.77;8.67;;;;;;;;;;5073018;28;20175;-59
2022/03/04 01:01:10;;;;;;;9.83;8.80;;;;;;;;;;5064535;28;20200;-59
2022/03/04 01:03:40;;;;;;;9.57;8.03;;;;;;;;;;5057121;28;20239;-58
2022/03/04 01:06:08;;;;;;;9.83;7.73;;;;;;;;;;5087997;28;20187;-58
2022/03/04 01:08:34;;;;;;;9.43;7.50;;;;;;;;;;5069633;28;20187;-59
2022/03/04 01:11:01;;;;;;;9.37;7.73;;;;;;;;;;5066044;28;20219;-59
2022/03/04 01:13:28;;;;;;;9.20;7.93;;;;;;;;;;5068178;28;20191;-59
2022/03/04 01:15:55;;;;;;;9.27;7.43;;;;;;;;;;5062333;28;20622;-59
2022/03/04 01:18:21;;;;;;;10.60;8.07;;;;;;;;;;5074933;28;20557;-59
2022/03/04 01:20:48;;;;;;;8.97;7.20;;;;;;;;;;5068665;28;20551;-59
2022/03/04 01:23:14;;;;;;;11.17;9.13;;;;;;;;;;5078980;28;20205;-59
2022/03/04 01:25:40;;;;;;;9.57;7.50;;;;;;;;;;5094680;28;20184;-59
2022/03/04 01:28:07;;;;;;;10.67;8.33;;;;;;;;;;5075262;28;20691;-59
2022/03/04 01:30:33;;;;;;;10.07;7.70;;;;;;;;;;5071823;28;20227;-59
2022/03/04 01:32:59;;;;;;;8.70;7.47;;;;;;;;;;5072973;28;20183;-59
2022/03/04 01:35:26;;;;;;;9.53;8.37;;;;;;;;;;5071088;28;20214;-59
2022/03/04 01:37:52;;;;;;;10.20;7.67;;;;;;;;;;5091457;28;20658;-59
2022/03/04 01:40:18;;;;;;;8.80;7.70;;;;;;;;;;5073207;28;20527;-59
2022/03/04 01:42:45;;;;;;;9.63;7.53;;;;;;;;;;5063933;28;20546;-58
2022/03/04 01:45:11;;;;;;;8.07;7.20;;;;;;;;;;5078990;28;20206;-59
2022/03/04 01:47:42;;;;;;;9.40;7.37;;;;;;;;;;5077212;28;20183;-59
2022/03/04 01:50:08;;;;;;;10.03;8.17;;;;;;;;;;5091123;28;20698;-59
2022/03/04 01:52:34;;;;;;;9.97;7.97;;;;;;;;;;5069087;28;20199;-59
2022/03/04 01:55:00;;;;;;;8.80;7.70;;;;;;;;;;5090993;28;20182;-60
2022/03/04 01:57:27;;;;;;;9.93;7.57;;;;;;;;;;5088842;28;20532;-60
2022/03/04 01:59:53;;;;;;;8.70;6.97;;;;;;;;;;5094099;28;20634;-58
2022/03/04 02:02:19;;;;;;;10.70;7.93;;;;;;;;;;5072260;28;20597;-59
2022/03/04 02:04:45;;;;;;;11.70;7.73;;;;;;;;;;5074552;28;20191;-59
2022/03/04 02:07:11;;;;;;;10.13;8.03;;;;;;;;;;5074631;28;20187;-60
2022/03/04 02:09:38;;;;;;;12.20;7.87;;;;;;;;;;5073957;28;20242;-59
2022/03/04 02:12:05;;;;;;;8.43;7.43;;;;;;;;;;5085204;28;20284;-60
2022/03/04 02:14:31;;;;;;;8.23;7.43;;;;;;;;;;5093975;28;20203;-60
2022/03/04 02:16:57;;;;;;;9.20;7.97;;;;;;;;;;5089654;28;20172;-59
2022/03/04 02:19:23;;;;;;;12.73;8.70;;;;;;;;;;5088013;28;20172;-59
2022/03/04 02:21:57;;;;;;;9.40;7.67;;;;;;;;;;5078340;28;20171;-59
2022/03/04 02:24:24;;;;;;;10.20;7.70;;;;;;;;;;5084475;28;20192;-58
2022/03/04 02:26:51;;;;;;;12.53;8.27;;;;;;;;;;5078325;28;20191;-60
2022/03/04 02:29:17;;;;;;;9.50;7.77;;;;;;;;;;5099700;28;20180;-59
2022/03/04 02:31:43;;;;;;;8.30;6.97;;;;;;;;;;5090563;28;20210;-58
2022/03/04 02:34:09;;;;;;;10.60;7.80;;;;;;;;;;5077825;28;20254;-59
2022/03/04 02:36:37;;;;;;;8.77;7.47;;;;;;;;;;5089528;28;20190;-59
2022/03/04 02:39:04;;;;;;;10.03;7.63;;;;;;;;;;5063088;28;20204;-60
2022/03/04 02:41:34;;;;;;;10.20;6.97;;;;;;;;;;5074611;28;20194;-59
2022/03/04 02:44:00;;;;;;;9.03;7.33;;;;;;;;;;5057979;28;20199;-60
2022/03/04 02:46:26;;;;;;;9.63;7.63;;;;;;;;;;5078360;28;20189;-59
2022/03/04 02:48:52;;;;;;;8.53;7.07;;;;;;;;;;5084002;28;20515;-61
2022/03/04 02:51:19;;;;;;;9.00;6.90;;;;;;;;;;5067547;28;20242;-60
2022/03/04 02:53:49;;;;;;;10.03;7.90;;;;;;;;;;5086561;28;20218;-60
2022/03/04 02:56:15;;;;;;;9.03;7.47;;;;;;;;;;5068588;28;20207;-60
2022/03/04 02:58:41;;;;;;;9.67;7.57;;;;;;;;;;5070128;28;20596;-59
2022/03/04 03:01:07;;;;;;;10.17;8.60;;;;;;;;;;5067224;28;20249;-60
2022/03/04 03:03:34;;;;;;;10.27;8.10;;;;;;;;;;5087165;28;20209;-57
2022/03/04 03:06:01;;;;;;;10.27;8.07;;;;;;;;;;5093279;28;20179;-59
2022/03/04 03:08:28;;;;;;;9.80;8.03;;;;;;;;;;5082813;28;20193;-59
2022/03/04 03:10:55;;;;;;;8.30;7.43;;;;;;;;;;5092353;28;20223;-58
2022/03/04 03:13:21;;;;;;;9.93;7.57;;;;;;;;;;5065620;28;20266;-59
2022/03/04 03:15:47;;;;;;;9.57;7.67;;;;;;;;;;5093196;28;20183;-59
2022/03/04 03:18:13;;;;;;;9.67;7.67;;;;;;;;;;5076722;28;20176;-59
2022/03/04 03:20:39;;;;;;;10.97;7.80;;;;;;;;;;5074387;28;20187;-59
2022/03/04 03:23:05;;;;;;;10.87;7.53;;;;;;;;;;5096524;28;20657;-59
2022/03/04 03:25:31;;;;;;;10.80;7.50;;;;;;;;;;5089707;28;20579;-58
2022/03/04 03:27:58;;;;;;;9.70;7.43;;;;;;;;;;5088059;28;20210;-59
2022/03/04 03:30:24;;;;;;;10.73;8.07;;;;;;;;;;5062262;28;20252;-59
2022/03/04 03:32:51;;;;;;;9.07;7.87;;;;;;;;;;5075470;28;20165;-60
2022/03/04 03:35:17;;;;;;;8.90;7.13;;;;;;;;;;5081741;28;20179;-59
2022/03/04 03:37:43;;;;;;;10.23;7.87;;;;;;;;;;5070736;28;20171;-60
2022/03/04 03:40:11;;;;;;;9.17;7.60;;;;;;;;;;5092031;28;20465;-60
2022/03/04 03:42:39;;;;;;;12.60;8.40;;;;;;;;;;5089443;28;20216;-59
2022/03/04 03:45:06;;;;;;;8.77;7.10;;;;;;;;;;5071599;28;20698;-60
2022/03/04 03:47:33;;;;;;;8.60;7.47;;;;;;;;;;5053598;28;20677;-59
2022/03/04 03:49:59;;;;;;;8.77;7.23;;;;;;;;;;5070900;28;20184;-60
2022/03/04 03:52:26;;;;;;;9.13;7.13;;;;;;;;;;5072064;28;20562;-60
2022/03/04 03:54:52;;;;;;;8.70;7.53;;;;;;;;;;5078394;28;20440;-59
2022/03/04 03:57:18;;;;;;;9.93;8.37;;;;;;;;;;5078549;28;20242;-60
2022/03/04 03:59:45;;;;;;;10.33;7.67;;;;;;;;;;5086475;28;20677;-59
2022/03/04 04:02:11;;;;;;;8.90;7.43;;;;;;;;;;5069223;28;20257;-59
2022/03/04 04:04:38;;;;;;;9.10;7.20;;;;;;;;;;5088258;28;20258;-60
2022/03/04 04:07:05;;;;;;;14.40;8.40;;;;;;;;;;5067034;28;20205;-59
2022/03/04 04:09:31;;;;;;;12.37;8.97;;;;;;;;;;5065338;28;20246;-60
2022/03/04 04:11:58;;;;;;;10.73;8.13;;;;;;;;;;5069407;28;20215;-60
2022/03/04 04:14:26;;;;;;;10.77;8.10;;;;;;;;;;5094672;28;20648;-60
2022/03/04 04:16:52;;;;;;;10.37;9.40;;;;;;;;;;5070092;28;20776;-60
2022/03/04 04:19:18;;;;;;;9.73;7.77;;;;;;;;;;5084648;28;20184;-58
2022/03/04 04:21:44;;;;;;;12.20;8.10;;;;;;;;;;5097456;28;20721;-59
2022/03/04 04:24:10;;;;;;;8.77;7.63;;;;;;;;;;5069531;28;20186;-58
2022/03/04 04:26:37;;;;;;;8.93;7.77;;;;;;;;;;5069494;28;20180;-58
2022/03/04 04:29:03;;;;;;;12.47;8.60;;;;;;;;;;5072558;28;20555;-58
2022/03/04 04:31:31;;;;;;;10.47;8.30;;;;;;;;;;5091116;28;20205;-59
2022/03/04 04:33:58;;;;;;;10.80;7.87;;;;;;;;;;5091617;28;20227;-59
2022/03/04 04:36:24;;;;;;;8.67;7.57;;;;;;;;;;5098786;28;20522;-59
2022/03/04 04:38:50;;;;;;;10.53;8.30;;;;;;;;;;5067195;28;20183;-59
2022/03/04 04:41:17;;;;;;;11.80;8.70;;;;;;;;;;5088862;28;20207;-59
2022/03/04 04:43:43;;;;;;;10.33;7.97;;;;;;;;;;5084551;28;20634;-59
2022/03/04 04:46:09;;;;;;;10.53;8.07;;;;;;;;;;5088579;28;20267;-59
2022/03/04 04:48:35;;;;;;;11.47;8.70;;;;;;;;;;5092246;28;20499;-59
2022/03/04 04:51:01;;;;;;;11.27;8.00;;;;;;;;;;5099133;28;20234;-58
2022/03/04 04:53:28;;;;;;;10.77;8.10;;;;;;;;;;5088985;28;20172;-59
2022/03/04 04:55:54;;;;;;;9.17;7.80;;;;;;;;;;5074953;28;20187;-58
2022/03/04 04:58:20;;;;;;;9.33;8.00;;;;;;;;;;5086859;28;20200;-59
2022/03/04 05:00:51;;;;;;;10.73;8.67;;;;;;;;;;5067126;28;20185;-58
2022/03/04 05:03:17;;;;;;;11.47;9.43;;;;;;;;;;5087427;28;20187;-58
2022/03/04 05:05:44;;;;;;;11.87;8.43;;;;;;;;;;5087998;28;20715;-59
2022/03/04 05:08:13;;;;;;;10.80;8.60;;;;;;;;;;5091288;28;20653;-58
2022/03/04 05:10:40;;;;;;;9.20;7.87;;;;;;;;;;5064622;28;20617;-59
2022/03/04 05:13:06;;;;;;;11.10;8.03;;;;;;;;;;5080632;28;20182;-58
2022/03/04 05:15:32;;;;;;;10.33;8.80;;;;;;;;;;5082459;28;20207;-58
2022/03/04 05:17:58;;;;;;;9.37;8.20;;;;;;;;;;5083092;28;20187;-59
2022/03/04 05:20:24;;;;;;;13.63;8.40;;;;;;;;;;5073267;28;20179;-59
2022/03/04 05:22:50;;;;;;;13.10;8.07;;;;;;;;;;5094142;28;20713;-60
2022/03/04 05:25:16;;;;;;;10.70;8.37;;;;;;;;;;5098441;28;20263;-60
2022/03/04 05:27:43;;;;;;;11.53;8.83;;;;;;;;;;5079374;28;20186;-59
2022/03/04 05:30:09;;;;;;;14.10;8.67;;;;;;;;;;5092002;28;20282;-60
2022/03/04 05:32:35;;;;;;;10.47;8.30;;;;;;;;;;5099518;28;20195;-60
2022/03/04 05:35:02;;;;;;;10.47;8.73;;;;;;;;;;5080914;28;20197;-59
2022/03/04 05:37:28;;;;;;;10.63;7.80;;;;;;;;;;5090806;28;20194;-59
2022/03/04 05:39:54;;;;;;;10.23;7.87;;;;;;;;;;5067248;28;20402;-60
2022/03/04 05:42:20;;;;;;;9.97;8.53;;;;;;;;;;5095981;28;20179;-60
2022/03/04 05:44:46;;;;;;;10.73;8.37;;;;;;;;;;5095219;28;20175;-60
2022/03/04 05:47:13;;;;;;;11.33;8.80;;;;;;;;;;5066993;28;22631;-59
2022/03/04 05:49:39;;;;;;;11.17;8.77;;;;;;;;;;5065929;28;20382;-59
2022/03/04 05:52:05;;;;;;;11.20;7.53;;;;;;;;;;5089573;28;20675;-60
2022/03/04 05:54:31;;;;;;;10.97;7.90;;;;;;;;;;5072387;28;20181;-60
2022/03/04 05:56:58;;;;;;;14.10;9.40;;;;;;;;;;5069994;28;20457;-59
2022/03/04 05:59:24;;;;;;;11.23;8.57;;;;;;;;;;5052101;28;20461;-60
2022/03/04 06:01:50;;;;;;;11.60;9.23;;;;;;;;;;5084461;28;20171;-60
2022/03/04 06:04:17;;;;;;;10.27;8.00;;;;;;;;;;5068197;28;20183;-59
2022/03/04 06:06:44;;;;;;;10.87;8.53;;;;;;;;;;5100349;28;20175;-60
2022/03/04 06:09:10;;;;;;;12.43;9.03;;;;;;;;;;5082327;28;20438;-59
2022/03/04 06:11:36;;;;;;;10.87;8.63;;;;;;;;;;5071307;28;20215;-60
2022/03/04 06:14:03;;;;;;;11.13;8.47;;;;;;;;;;5081418;28;20181;-60
2022/03/04 06:16:29;;;;;;;10.27;8.13;;;;;;;;;;5078088;28;20290;-59
2022/03/04 06:18:55;;;;;;;9.80;8.07;;;;;;;;;;5071643;28;20183;-59
2022/03/04 06:21:22;;;;;;;11.27;8.90;;;;;;;;;;5083363;28;20270;-60
2022/03/04 06:23:48;;;;;;;11.77;8.53;;;;;;;;;;5100706;28;20576;-60
2022/03/04 06:26:14;;;;;;;11.90;9.40;;;;;;;;;;5089287;28;20488;-60
2022/03/04 06:28:40;;;;;;;11.90;8.70;;;;;;;;;;5070612;28;20272;-60
2022/03/04 06:31:07;;;;;;;9.73;8.20;;;;;;;;;;5091369;28;20248;-60
2022/03/04 06:33:35;;;;;;;10.40;7.80;;;;;;;;;;5094733;28;20179;-60
2022/03/04 06:36:05;;;;;;;10.10;7.67;;;;;;;;;;5070793;28;20194;-60
2022/03/04 06:38:32;;;;;;;12.67;8.40;;;;;;;;;;5071193;28;20184;-60
2022/03/04 06:40:59;;;;;;;15.10;8.90;;;;;;;;;;5098277;28;20630;-59
2022/03/04 06:43:25;;;;;;;11.20;8.27;;;;;;;;;;5105011;28;20175;-59
2022/03/04 06:45:52;;;;;;;12.20;8.93;;;;;;;;;;5080770;28;20240;-60
2022/03/04 06:48:19;;;;;;;10.10;8.20;;;;;;;;;;5085834;28;20199;-58
2022/03/04 06:50:46;;;;;;;9.43;7.60;;;;;;;;;;5078788;28;20685;-59
2022/03/04 06:53:12;;;;;;;10.10;8.10;;;;;;;;;;5071960;28;20187;-59
2022/03/04 06:55:41;;;;;;;11.80;8.40;;;;;;;;;;5071510;28;20896;-59
2022/03/04 06:58:08;;;;;;;13.33;9.90;;;;;;;;;;5088051;28;20257;-59
2022/03/04 07:00:34;;;;;;;11.07;8.57;;;;;;;;;;5085942;28;20182;-59
2022/03/04 07:03:00;;;;;;;10.73;8.00;;;;;;;;;;5089073;28;20712;-60
2022/03/04 07:05:26;;;;;;;12.30;8.20;;;;;;;;;;5069375;28;20176;-60
2022/03/04 07:07:54;;;;;;;11.07;8.63;;;;;;;;;;5068912;28;20527;-60
2022/03/04 07:10:20;;;;;;;11.73;9.10;;;;;;;;;;5088217;28;20586;-60
2022/03/04 07:12:47;;;;;;;11.00;8.30;;;;;;;;;;5070612;28;20207;-59
2022/03/04 07:15:13;;;;;;;13.50;9.60;;;;;;;;;;5054294;28;20663;-59
2022/03/04 07:17:39;;;;;;;11.67;8.70;;;;;;;;;;5088868;28;20179;-59
2022/03/04 07:20:07;;;;;;;12.10;8.93;;;;;;;;;;5088639;28;20555;-59
2022/03/04 07:22:35;;;;;;;10.40;8.50;;;;;;;;;;5070077;28;20492;-59
2022/03/04 07:25:02;;;;;;;11.27;8.27;;;;;;;;;;5088781;28;20453;-59
2022/03/04 07:27:29;;;;;;;12.87;8.23;;;;;;;;;;5068228;28;20425;-59
2022/03/04 07:29:55;;;;;;;13.83;9.07;;;;;;;;;;5084199;28;20421;-59
2022/03/04 07:32:22;;;;;;;10.43;8.73;;;;;;;;;;5100031;28;20278;-58
2022/03/04 07:34:49;;;;;;;10.73;8.47;;;;;;;;;;5093788;28;20615;-59
2022/03/04 07:37:15;;;;;;;9.63;7.57;;;;;;;;;;5087808;28;20167;-59
2022/03/04 07:39:41;;;;;;;10.57;8.53;;;;;;;;;;5074490;28;20179;-59
2022/03/04 07:42:07;;;;;;;9.83;8.37;;;;;;;;;;5078731;28;20420;-60
2022/03/04 07:44:33;;;;;;;10.53;8.10;;;;;;;;;;5077586;28;20187;-59
2022/03/04 07:46:59;;;;;;;11.03;8.27;;;;;;;;;;5088549;28;20422;-59
2022/03/04 07:49:25;;;;;;;12.33;8.47;;;;;;;;;;5088518;28;20828;-59
2022/03/04 07:51:51;;;;;;;11.70;8.43;;;;;;;;;;5101751;28;20510;-59
2022/03/04 07:54:18;;;;;;;11.33;8.00;;;;;;;;;;5059969;28;20454;-59
2022/03/04 07:56:45;;;;;;;11.20;8.57;;;;;;;;;;5095479;28;20442;-59
2022/03/04 07:59:11;;;;;;;12.60;9.43;;;;;;;;;;5074886;28;20224;-59
2022/03/04 08:01:37;;;;;;;13.77;8.67;;;;;;;;;;5070732;28;20190;-59
2022/03/04 08:04:05;;;;;;;9.77;7.97;;;;;;;;;;5058455;28;20425;-59
2022/03/04 08:06:31;;;;;;;10.77;8.67;;;;;;;;;;5087164;28;20196;-59
2022/03/04 08:09:00;;;;;;;11.40;9.23;;;;;;;;;;5069728;28;20218;-59
2022/03/04 08:11:28;;;;;;;11.83;8.07;;;;;;;;;;5087859;28;20223;-59
2022/03/04 08:13:54;;;;;;;13.50;9.10;;;;;;;;;;5069506;28;20176;-59
2022/03/04 08:16:20;;;;;;;12.03;8.93;;;;;;;;;;5088265;28;20589;-59
2022/03/04 08:18:47;;;;;;;13.97;9.13;;;;;;;;;;5091125;28;20187;-59
2022/03/04 08:21:16;;;;;;;11.10;8.43;;;;;;;;;;5068305;28;20171;-59
2022/03/04 08:23:42;;;;;;;11.13;8.60;;;;;;;;;;5099713;28;20175;-59
2022/03/04 08:26:09;;;;;;;10.27;8.37;;;;;;;;;;5089550;28;20191;-59
2022/03/04 08:28:35;;;;;;;10.77;8.33;;;;;;;;;;5102610;28;20191;-59
2022/03/04 08:31:03;;;;;;;9.93;8.00;;;;;;;;;;5087202;28;20764;-59
2022/03/04 08:33:29;;;;;;;10.70;7.97;;;;;;;;;;5075237;28;20500;-59
2022/03/04 08:35:56;;;;;;;10.60;8.40;;;;;;;;;;5086473;28;20475;-58
2022/03/04 08:38:22;;;;;;;11.93;8.70;;;;;;;;;;5094499;28;20815;-59
2022/03/04 08:40:48;;;;;;;12.93;8.63;;;;;;;;;;5091170;28;20186;-59
2022/03/04 08:43:14;;;;;;;11.73;8.83;;;;;;;;;;5085798;28;20606;-59
2022/03/04 08:45:40;;;;;;;10.43;8.20;;;;;;;;;;5083771;28;20186;-59
2022/03/04 08:48:07;;;;;;;12.30;9.60;;;;;;;;;;5092076;28;20666;-59
2022/03/04 08:50:34;;;;;;;12.90;8.10;;;;;;;;;;5073238;28;20187;-58
2022/03/04 08:53:01;;;;;;;11.07;8.63;;;;;;;;;;5072042;28;20425;-59
2022/03/04 08:55:30;;;;;;;10.73;8.30;;;;;;;;;;5091045;28;20223;-59
2022/03/04 08:57:56;;;;;;;11.57;7.83;;;;;;;;;;5086236;28;20198;-59
2022/03/04 09:00:23;;;;;;;9.97;8.63;;;;;;;;;;5092205;28;20430;-59
2022/03/04 09:02:49;;;;;;;11.80;9.23;;;;;;;;;;5083591;28;20179;-58
2022/03/04 09:05:15;;;;;;;12.17;8.27;;;;;;;;;;5074194;28;20259;-58
2022/03/04 09:07:42;;;;;;;11.90;9.07;;;;;;;;;;5090196;28;20172;-58
2022/03/04 09:10:08;;;;;;;12.30;8.83;;;;;;;;;;5072178;28;20251;-58
2022/03/04 09:12:35;;;;;;;12.53;9.10;;;;;;;;;;5096681;28;20199;-59
2022/03/04 09:15:02;;;;;;;13.40;9.03;;;;;;;;;;5080042;28;20172;-59
2022/03/04 09:17:28;;;;;;;10.93;8.17;;;;;;;;;;5076931;28;20202;-59
2022/03/04 09:19:54;;;;;;;10.50;8.67;;;;;;;;;;5090801;28;20272;-58
2022/03/04 09:22:20;;;;;;;11.50;8.40;;;;;;;;;;5109000;28;20187;-59
2022/03/04 09:24:46;;;;;;;13.23;9.40;;;;;;;;;;5078427;28;20260;-59
2022/03/04 09:27:12;;;;;;;11.90;8.80;;;;;;;;;;5112034;28;20636;-58
2022/03/04 09:29:38;;;;;;;12.57;9.60;;;;;;;;;;5084747;28;20182;-59
2022/03/04 09:32:04;;;;;;;12.50;8.93;;;;;;;;;;5069236;28;20615;-59
2022/03/04 09:34:30;;;;;;;11.97;8.73;;;;;;;;;;5080559;28;20540;-59
2022/03/04 09:36:56;;;;;;;11.37;8.77;;;;;;;;;;5078936;28;20198;-59
2022/03/04 09:39:23;;;;;;;10.60;8.27;;;;;;;;;;5097718;28;20171;-59
2022/03/04 09:41:49;;;;;;;9.90;8.17;;;;;;;;;;5111382;28;20634;-59
2022/03/04 09:44:16;;;;;;;13.63;8.93;;;;;;;;;;5096803;28;20236;-59
2022/03/04 09:46:42;;;;;;;12.90;9.30;;;;;;;;;;5078033;28;20183;-59
2022/03/04 09:49:09;;;;;;;11.10;8.70;;;;;;;;;;5090890;28;20662;-59
2022/03/04 09:51:36;;;;;;;12.00;8.80;;;;;;;;;;5081069;28;20196;-59
2022/03/04 09:54:02;;;;;;;10.93;8.83;;;;;;;;;;5100392;28;20569;-58
2022/03/04 09:56:28;;;;;;;10.47;7.77;;;;;;;;;;5108723;28;20198;-58
2022/03/04 09:58:55;;;;;;;13.30;9.20;;;;;;;;;;5078977;28;20176;-59
2022/03/04 10:01:24;;;;;;;9.47;8.27;;;;;;;;;;5088640;28;20240;-59
2022/03/04 10:03:51;;;;;;;10.83;9.13;;;;;;;;;;5100346;28;20255;-59
2022/03/04 10:06:18;;;;;;;12.57;8.73;;;;;;;;;;5077606;28;20589;-58
2022/03/04 10:08:48;;;;;;;9.90;8.77;;;;;;;;;;5090002;28;20480;-57
2022/03/04 10:11:24;;;;;;;10.30;8.40;;;;;;;;;;5091082;28;20650;-59
2022/03/04 10:13:52;;;;;;;11.23;8.53;;;;;;;;;;5090306;28;20590;-58
2022/03/04 10:16:23;;;;;;;12.63;9.83;;;;;;;;;;5098095;28;20539;-58
2022/03/04 10:19:10;;;;;;;11.97;9.03;;;;;;;;;;5081576;28;20654;-58
2022/03/04 10:21:55;;;;;;;10.33;9.07;;;;;;;;;;5088498;28;20182;-58
2022/03/04 10:24:22;;;;;;;10.97;8.90;;;;;;;;;;5081210;28;20680;-59
2022/03/04 10:26:58;;;;;;;9.83;8.50;;;;;;;;;;5078331;28;20183;-59
2022/03/04 10:29:24;;;;;;;12.07;9.43;;;;;;;;;;5077882;28;20174;-58
2022/03/04 10:32:06;;;;;;;13.93;9.83;;;;;;;;;;5090345;28;20207;-59
2022/03/04 10:34:51;;;;;;;12.53;9.13;;;;;;;;;;5081043;28;20665;-58
2022/03/04 10:37:19;;;;;;;12.00;9.43;;;;;;;;;;5088958;28;20190;-58
2022/03/04 10:39:59;;;;;;;11.27;8.87;;;;;;;;;;5096587;28;20530;-58
2022/03/04 10:42:42;;;;;;;11.60;9.20;;;;;;;;;;5088345;28;20187;-58
2022/03/04 10:45:10;;;;;;;12.43;9.03;;;;;;;;;;5102921;28;20179;-58
2022/03/04 10:48:08;;;;;;;11.57;9.30;;;;;;;;;;5083378;28;20524;-58
2022/03/04 10:50:36;;;;;;;12.00;9.40;;;;;;;;;;5052860;28;20194;-58
2022/03/04 10:53:07;;;;;;;13.67;9.50;;;;;;;;;;5090272;28;20754;-58
2022/03/04 10:55:39;;;;;;;12.20;9.40;;;;;;;;;;5072210;28;20554;-58
2022/03/04 10:58:07;;;;;;;12.57;9.80;;;;;;;;;;5101804;28;20206;-58
2022/03/04 11:00:38;;;;;;;14.50;9.73;;;;;;;;;;5088617;28;20183;-58
2022/03/04 11:03:05;;;;;;;11.07;9.73;;;;;;;;;;5097776;28;20290;-58
2022/03/04 11:05:32;;;;;;;14.17;10.07;;;;;;;;;;5063775;28;20904;-59
2022/03/04 11:07:58;;;;;;;14.47;10.63;;;;;;;;;;5069928;28;20650;-59
2022/03/04 11:10:25;;;;;;;13.93;10.87;;;;;;;;;;5061398;28;20223;-59
2022/03/04 11:12:53;;;;;;;19.23;11.23;;;;;;;;;;5061276;28;20222;-59
2022/03/04 11:15:19;;;;;;;14.40;10.80;;;;;;;;;;5058170;28;20186;-58
2022/03/04 11:17:46;;;;;;;15.90;11.60;;;;;;;;;;5066927;28;20259;-58
2022/03/04 11:20:16;;;;;;;14.77;11.13;;;;;;;;;;5062087;28;20181;-59
2022/03/04 11:22:43;;;;;;;13.93;9.97;;;;;;;;;;5048889;28;20188;-63
2022/03/04 11:25:14;;;;;;;12.77;10.60;;;;;;;;;;5051786;28;20207;-58
2022/03/04 11:27:45;;;;;;;13.80;10.67;;;;;;;;;;5049996;28;20627;-59
2022/03/04 11:30:34;;;;;;;13.53;10.23;;;;;;;;;;5058021;28;20262;-59
2022/03/04 11:33:20;;;;;;;13.30;10.17;;;;;;;;;;5067795;28;20659;-59
2022/03/04 11:36:05;;;;;;;14.90;10.13;;;;;;;;;;5059849;28;20177;-58
2022/03/04 11:38:55;;;;;;;13.03;10.13;;;;;;;;;;5067624;28;20663;-58
2022/03/04 11:41:28;;;;;;;13.80;11.37;;;;;;;;;;5058580;28;20196;-59
2022/03/04 11:43:59;;;;;;;14.70;10.43;;;;;;;;;;5069160;28;20182;-59
2022/03/04 11:46:27;;;;;;;13.53;9.93;;;;;;;;;;5036460;28;20274;-58
2022/03/04 11:49:12;;;;;;;13.73;10.77;;;;;;;;;;5057576;28;20288;-59
2022/03/04 11:51:38;;;;;;;12.93;9.83;;;;;;;;;;5031800;28;20220;-59
2022/03/04 11:54:23;;;;;;;14.07;10.77;;;;;;;;;;5068149;28;20180;-59
2022/03/04 11:56:53;;;;;;;12.23;9.87;;;;;;;;;;5067611;28;20202;-59
2022/03/04 11:59:21;;;;;;;14.87;10.50;;;;;;;;;;5077793;28;20589;-59
2022/03/04 12:01:48;;;;;;;14.00;9.63;;;;;;;;;;5067907;28;20172;-58
2022/03/04 12:04:16;;;;;;;14.03;10.00;;;;;;;;;;5057960;28;20185;-59
2022/03/04 12:06:43;;;;;;;13.87;10.23;;;;;;;;;;5086236;28;20184;-59
2022/03/04 12:09:26;;;;;;;13.13;9.63;;;;;;;;;;5078675;28;20188;-59
2022/03/04 12:12:16;;;;;;;13.40;9.87;;;;;;;;;;5053486;28;20227;-60
2022/03/04 12:14:49;;;;;;;11.90;8.67;;;;;;;;;;5069208;28;20230;-59
2022/03/04 12:17:16;;;;;;;10.63;8.50;;;;;;;;;;5069890;28;20183;-59
2022/03/04 12:19:47;;;;;;;11.73;9.23;;;;;;;;;;5077487;28;20566;-58
2022/03/04 12:22:14;;;;;;;14.07;10.27;;;;;;;;;;5088819;28;20183;-59
2022/03/04 12:24:53;;;;;;;10.70;8.97;;;;;;;;;;5075779;28;20179;-59
2022/03/04 12:27:36;;;;;;;12.20;9.13;;;;;;;;;;5069688;28;20253;-59
2022/03/04 12:30:17;;;;;;;13.60;9.80;;;;;;;;;;5071125;28;20188;-60
2022/03/04 12:32:47;;;;;;;12.67;10.03;;;;;;;;;;5075405;28;20552;-60
2022/03/04 12:35:15;;;;;;;10.30;8.30;;;;;;;;;;5077937;28;20172;-59
2022/03/04 12:37:41;;;;;;;11.93;9.17;;;;;;;;;;5087990;28;20556;-60
2022/03/04 12:40:08;;;;;;;11.83;9.47;;;;;;;;;;5099813;28;20167;-60
2022/03/04 12:42:34;;;;;;;10.67;8.07;;;;;;;;;;5090107;28;20186;-59
2022/03/04 12:45:00;;;;;;;11.90;8.90;;;;;;;;;;5088133;28;20176;-59
2022/03/04 12:47:31;;;;;;;11.70;8.77;;;;;;;;;;5095812;28;20184;-59
2022/03/04 12:49:57;;;;;;;11.20;8.63;;;;;;;;;;5089539;28;20160;-59
2022/03/04 12:52:24;;;;;;;10.93;8.73;;;;;;;;;;5089405;28;20199;-58
2022/03/04 12:54:50;;;;;;;10.57;8.57;;;;;;;;;;5076748;28;20203;-59
2022/03/04 12:57:19;;;;;;;10.83;8.70;;;;;;;;;;5095317;28;20204;-59
2022/03/04 12:59:46;;;;;;;11.43;9.60;;;;;;;;;;5069439;28;20179;-60
2022/03/04 13:02:12;;;;;;;11.63;9.27;;;;;;;;;;5082559;28;20179;-60
2022/03/04 13:04:38;;;;;;;11.50;8.33;;;;;;;;;;5096779;28;20250;-60
2022/03/04 13:07:08;;;;;;;11.50;8.63;;;;;;;;;;5075281;28;20184;-60
2022/03/04 13:09:34;;;;;;;10.17;8.43;;;;;;;;;;5094378;28;20227;-60
2022/03/04 13:12:08;;;;;;;10.27;8.43;;;;;;;;;;5107144;28;20191;-60
2022/03/04 13:14:34;;;;;;;9.13;7.77;;;;;;;;;;5081982;28;20176;-60
2022/03/04 13:17:00;;;;;;;13.80;8.50;;;;;;;;;;5097266;28;20200;-60
2022/03/04 13:19:29;;;;;;;12.60;9.03;;;;;;;;;;5092852;28;20176;-60
2022/03/04 13:22:08;;;;;;;13.37;8.90;;;;;;;;;;5067978;28;20233;-60
2022/03/04 13:24:45;;;;;;;10.27;7.97;;;;;;;;;;5069967;28;20237;-59
2022/03/04 13:27:15;;;;;;;10.20;8.43;;;;;;;;;;5088740;28;20183;-60
2022/03/04 13:29:50;;;;;;;10.70;9.03;;;;;;;;;;5086174;28;20260;-60
2022/03/04 13:32:17;;;;;;;12.33;9.20;;;;;;;;;;5072136;28;20203;-60
2022/03/04 13:34:45;;;;;;;9.80;8.47;;;;;;;;;;5070438;28;20176;-61
2022/03/04 13:37:13;;;;;;;10.33;8.97;;;;;;;;;;5066178;28;20179;-61
2022/03/04 13:39:41;;;;;;;12.07;8.83;;;;;;;;;;5090539;28;20177;-61
2022/03/04 13:42:07;;;;;;;9.87;8.83;;;;;;;;;;5078563;28;20657;-60
2022/03/04 13:44:34;;;;;;;11.03;8.63;;;;;;;;;;5093058;28;20183;-61
2022/03/04 13:47:01;;;;;;;11.93;9.83;;;;;;;;;;5095528;28;20194;-60
2022/03/04 13:49:41;;;;;;;10.67;8.60;;;;;;;;;;5089163;28;21690;-60
2022/03/04 13:52:07;;;;;;;11.90;8.97;;;;;;;;;;5071470;28;20331;-61
2022/03/04 13:54:46;;;;;;;10.27;7.97;;;;;;;;;;5089483;28;20176;-61
2022/03/04 13:57:25;;;;;;;9.37;8.37;;;;;;;;;;5088099;28;20718;-61
2022/03/04 13:59:51;;;;;;;9.67;7.87;;;;;;;;;;5078479;28;20176;-60
2022/03/04 14:02:17;;;;;;;11.87;8.77;;;;;;;;;;5074818;28;20715;-60
2022/03/04 14:04:56;;;;;;;10.63;8.53;;;;;;;;;;5085809;28;20650;-61
2022/03/04 14:07:22;;;;;;;10.00;8.20;;;;;;;;;;5087712;28;20591;-60
2022/03/04 14:09:55;;;;;;;11.90;8.83;;;;;;;;;;5072124;28;20540;-60
2022/03/04 14:12:22;;;;;;;11.43;8.90;;;;;;;;;;5067709;28;20203;-60
2022/03/04 14:14:48;;;;;;;11.67;8.33;;;;;;;;;;5073795;28;20180;-60
2022/03/04 14:17:14;;;;;;;9.10;7.70;;;;;;;;;;5082530;28;20267;-59
2022/03/04 14:19:41;;;;;;;10.17;7.90;;;;;;;;;;5064851;28;20263;-61
2022/03/04 14:22:07;;;;;;;10.37;8.53;;;;;;;;;;5078464;28;20228;-61
2022/03/04 14:24:34;;;;;;;12.10;9.27;;;;;;;;;;5065043;28;20188;-59
2022/03/04 14:27:00;;;;;;;11.07;9.30;;;;;;;;;;5038391;28;20237;-60
2022/03/04 14:29:29;;;;;;;10.57;8.20;;;;;;;;;;5070523;28;20652;-59
2022/03/04 14:31:56;;;;;;;11.70;9.27;;;;;;;;;;5089736;28;20203;-60
2022/03/04 14:34:30;;;;;;;10.63;9.37;;;;;;;;;;5088049;28;20167;-59